Time;durP1;ratioP1;P1;durP2;ratioP2;P2;SDS_P1;SDS_P2;PMS_P1;PMS_P2;Temp;Humidity;BMP_temperature;BMP_pressure;BME280_temperature;BME280_humidity;BME280_pressure;Samples;Min_cycle;Max_cycle;Signal;HPM_P1;HPM_P2
2024/03/10 00:00:24;;;;;;;24.33;15.27;;;5.20;96.60;;;;;;4972375;28;20144;-70
2024/03/10 00:02:52;;;;;;;29.00;18.77;;;5.20;96.60;;;;;;4987453;28;20512;-70
2024/03/10 00:05:20;;;;;;;26.35;16.17;;;5.20;96.80;;;;;;4972278;28;20039;-70
2024/03/10 00:07:48;;;;;;;35.75;23.73;;;5.20;96.80;;;;;;4972663;28;20067;-70
2024/03/10 00:10:15;;;;;;;39.35;25.92;;;5.20;96.70;;;;;;4957466;28;20397;-70
2024/03/10 00:12:48;;;;;;;28.90;22.10;;;5.20;97.10;;;;;;4972608;28;20394;-70
2024/03/10 00:15:17;;;;;;;30.80;20.52;;;5.20;97.00;;;;;;4957324;28;20456;-71
2024/03/10 00:17:44;;;;;;;28.65;19.13;;;5.20;97.30;;;;;;4972431;28;20051;-70
2024/03/10 00:20:12;;;;;;;28.35;15.45;;;5.20;97.20;;;;;;4957542;28;20129;-71
2024/03/10 00:22:40;;;;;;;31.65;21.58;;;5.30;97.30;;;;;;4957668;28;20081;-70
2024/03/10 00:25:08;;;;;;;34.05;23.20;;;5.30;97.50;;;;;;4972489;28;20404;-70
2024/03/10 00:27:38;;;;;;;29.27;18.95;;;5.30;97.40;;;;;;4957263;28;20047;-70
2024/03/10 00:30:07;;;;;;;23.60;13.20;;;5.30;97.30;;;;;;4972340;28;20054;-70
2024/03/10 00:32:35;;;;;;;31.65;21.88;;;5.40;97.40;;;;;;4983407;28;20054;-70
2024/03/10 00:35:05;;;;;;;30.98;19.65;;;5.40;97.40;;;;;;4996062;28;20484;-70
2024/03/10 00:37:33;;;;;;;29.10;20.65;;;5.50;97.40;;;;;;4978833;28;20043;-70
2024/03/10 00:40:01;;;;;;;33.80;19.75;;;5.50;97.30;;;;;;4995940;28;20035;-69
2024/03/10 00:42:29;;;;;;;24.50;16.17;;;5.60;97.50;;;;;;4995639;28;20069;-70
2024/03/10 00:44:57;;;;;;;31.98;19.30;;;5.60;97.50;;;;;;4995954;28;20115;-70
2024/03/10 00:47:24;;;;;;;30.02;16.73;;;5.70;97.50;;;;;;5010829;28;20116;-70
2024/03/10 00:49:51;;;;;;;27.02;17.02;;;5.70;97.40;;;;;;4994990;28;20125;-70
2024/03/10 00:52:18;;;;;;;25.88;16.38;;;5.80;97.40;;;;;;4994302;28;20144;-71
2024/03/10 00:54:45;;;;;;;26.58;15.80;;;5.80;97.30;;;;;;4995636;28;20061;-70
2024/03/10 00:57:14;;;;;;;34.20;19.33;;;5.80;97.20;;;;;;4978435;28;20054;-70
2024/03/10 00:59:42;;;;;;;29.08;17.90;;;5.90;97.20;;;;;;4995485;28;20133;-70
2024/03/10 01:02:09;;;;;;;27.05;17.05;;;5.90;97.20;;;;;;4995758;28;20081;-70
2024/03/10 01:04:36;;;;;;;29.38;18.48;;;5.90;97.20;;;;;;4978385;28;20038;-70
2024/03/10 01:07:03;;;;;;;31.40;18.90;;;5.90;97.20;;;;;;4995580;28;20046;-70
2024/03/10 01:09:30;;;;;;;27.98;16.05;;;5.90;97.20;;;;;;4995269;28;20554;-70
2024/03/10 01:11:57;;;;;;;24.95;15.93;;;5.90;97.20;;;;;;4995712;28;20515;-70
2024/03/10 01:14:25;;;;;;;30.02;18.38;;;5.90;97.20;;;;;;4993973;28;20122;-70
2024/03/10 01:16:52;;;;;;;25.00;14.77;;;5.90;97.20;;;;;;4995463;28;20133;-70
2024/03/10 01:19:19;;;;;;;29.33;15.85;;;5.90;97.30;;;;;;4994151;28;20051;-70
2024/03/10 01:21:46;;;;;;;31.10;17.02;;;5.90;97.20;;;;;;4994230;28;20070;-70
2024/03/10 01:24:13;;;;;;;27.10;16.88;;;5.90;97.20;;;;;;4993836;28;20046;-70
2024/03/10 01:26:40;;;;;;;29.92;17.40;;;5.90;97.20;;;;;;4993795;28;20057;-70
2024/03/10 01:29:08;;;;;;;25.42;15.35;;;5.90;97.30;;;;;;4993780;28;20053;-70
2024/03/10 01:31:35;;;;;;;27.95;16.55;;;5.90;97.30;;;;;;4993637;28;20047;-70
2024/03/10 01:34:02;;;;;;;27.45;13.40;;;5.90;97.30;;;;;;4994987;28;20077;-70
2024/03/10 01:36:29;;;;;;;25.60;13.80;;;5.90;97.40;;;;;;4993537;28;20050;-70
2024/03/10 01:38:56;;;;;;;22.20;12.82;;;5.90;97.50;;;;;;4993637;28;20057;-69
2024/03/10 01:41:25;;;;;;;28.50;16.55;;;5.90;97.50;;;;;;4993612;28;20042;-70
2024/03/10 01:43:52;;;;;;;22.80;16.33;;;5.90;97.50;;;;;;4994951;28;20046;-70
2024/03/10 01:46:21;;;;;;;23.88;10.57;;;5.90;97.60;;;;;;4993623;28;20050;-70
2024/03/10 01:48:49;;;;;;;30.92;17.98;;;5.90;97.60;;;;;;4993595;28;20057;-71
2024/03/10 01:51:17;;;;;;;20.08;13.38;;;5.80;97.70;;;;;;4993430;28;20504;-70
2024/03/10 01:53:46;;;;;;;24.48;15.63;;;5.80;97.70;;;;;;4993126;28;20055;-70
2024/03/10 01:56:14;;;;;;;21.27;12.30;;;5.80;97.70;;;;;;4993405;28;20046;-70
2024/03/10 01:58:46;;;;;;;23.40;15.45;;;5.80;97.70;;;;;;4993087;28;20074;-70
2024/03/10 02:01:15;;;;;;;26.00;14.93;;;5.80;98.00;;;;;;4977072;28;20533;-70
2024/03/10 02:03:46;;;;;;;26.67;15.60;;;5.80;97.70;;;;;;4993017;28;20038;-70
2024/03/10 02:06:13;;;;;;;23.85;15.70;;;5.80;97.80;;;;;;4994640;28;20464;-70
2024/03/10 02:08:41;;;;;;;22.40;14.35;;;5.80;97.80;;;;;;4976744;28;20050;-70
2024/03/10 02:11:12;;;;;;;26.02;16.40;;;5.70;97.90;;;;;;4994555;28;20042;-70
2024/03/10 02:13:40;;;;;;;27.83;15.75;;;5.70;97.90;;;;;;4992995;28;20137;-70
2024/03/10 02:16:11;;;;;;;29.48;16.00;;;5.60;98.00;;;;;;4994121;28;20042;-70
2024/03/10 02:18:38;;;;;;;27.73;17.02;;;5.60;98.00;;;;;;4993912;28;20038;-70
2024/03/10 02:21:08;;;;;;;27.35;18.40;;;5.60;98.20;;;;;;4994163;28;20373;-70
2024/03/10 02:23:59;;;;;;;21.33;13.73;;;5.50;98.10;;;;;;4992445;28;20411;-70
2024/03/10 02:26:36;;;;;;;25.58;15.25;;;5.50;98.30;;;;;;4989044;28;20061;-70
2024/03/10 02:29:21;;;;;;;22.85;12.77;;;5.50;98.30;;;;;;4976753;28;20081;-70
2024/03/10 02:48:26;;;;;;;25.63;14.88;;;5.50;98.50;;;;;;4993708;28;20078;-69
2024/03/10 02:50:53;;;;;;;29.60;18.35;;;5.50;98.60;;;;;;4993395;28;20385;-70
2024/03/10 02:53:20;;;;;;;30.48;18.75;;;5.50;98.60;;;;;;4992427;28;20046;-70
2024/03/10 02:55:48;;;;;;;25.73;16.25;;;5.50;98.60;;;;;;4992114;28;20048;-70
2024/03/10 02:58:15;;;;;;;28.20;17.60;;;5.50;98.80;;;;;;4992231;28;20490;-70
2024/03/10 03:00:42;;;;;;;30.42;18.27;;;5.50;98.70;;;;;;4991842;28;20046;-70
2024/03/10 03:03:09;;;;;;;26.25;14.27;;;5.50;98.70;;;;;;4992284;28;20576;-70
2024/03/10 03:05:39;;;;;;;19.08;12.75;;;5.50;98.70;;;;;;4992268;28;20478;-70
2024/03/10 03:08:07;;;;;;;26.83;15.65;;;5.50;98.90;;;;;;4992127;28;20165;-70
2024/03/10 03:10:34;;;;;;;27.77;16.98;;;5.50;98.80;;;;;;4993081;28;20403;-70
2024/03/10 03:13:01;;;;;;;23.98;14.88;;;5.50;98.80;;;;;;4991383;28;20048;-70
2024/03/10 03:15:29;;;;;;;27.20;16.10;;;5.50;98.70;;;;;;4993150;28;20101;-70
2024/03/10 03:17:57;;;;;;;22.02;14.40;;;5.50;98.80;;;;;;4991870;28;20492;-70
2024/03/10 03:20:26;;;;;;;27.42;16.13;;;5.50;98.80;;;;;;4993001;28;20042;-70
2024/03/10 03:22:53;;;;;;;26.85;17.45;;;5.50;98.80;;;;;;4992876;28;20412;-70
2024/03/10 03:25:20;;;;;;;22.48;14.23;;;5.50;98.80;;;;;;4991696;28;20038;-70
2024/03/10 03:27:48;;;;;;;31.65;16.75;;;5.50;98.80;;;;;;4992964;28;20054;-70
2024/03/10 03:30:16;;;;;;;27.90;17.13;;;5.50;98.90;;;;;;4991792;28;20050;-70
2024/03/10 03:32:43;;;;;;;22.50;14.07;;;5.50;98.90;;;;;;4992876;28;20043;-70
2024/03/10 03:35:11;;;;;;;22.35;15.70;;;5.50;99.10;;;;;;4991800;28;20407;-70
2024/03/10 03:37:38;;;;;;;25.20;13.60;;;5.50;99.10;;;;;;4975867;28;20051;-70
2024/03/10 03:40:09;;;;;;;26.52;15.60;;;5.50;99.10;;;;;;4991938;28;20061;-70
2024/03/10 03:42:36;;;;;;;;;;;5.40;99.10;;;;;;4992168;28;20247;-70
2024/03/10 03:45:04;;;;;;;23.40;14.55;;;5.40;99.20;;;;;;4991569;28;19932;-70
2024/03/10 03:47:32;;;;;;;29.13;16.75;;;5.40;99.10;;;;;;4992982;28;20038;-70
2024/03/10 03:49:59;;;;;;;25.67;14.57;;;5.40;99.10;;;;;;4992551;28;20049;-70
2024/03/10 03:52:26;;;;;;;27.50;15.23;;;5.40;99.20;;;;;;4991577;28;20500;-70
2024/03/10 03:54:54;;;;;;;18.85;13.15;;;5.40;99.40;;;;;;4991540;28;20042;-70
2024/03/10 03:57:22;;;;;;;35.15;19.77;;;5.40;99.20;;;;;;4975540;28;20042;-70
2024/03/10 03:59:50;;;;;;;29.63;19.52;;;5.40;99.40;;;;;;4992553;28;20451;-70
2024/03/10 04:02:23;;;;;;;28.77;18.08;;;5.40;99.30;;;;;;4973121;28;20051;-70
2024/03/10 04:04:50;;;;;;;27.55;16.65;;;5.40;99.40;;;;;;4986299;28;20118;-70
2024/03/10 04:07:17;;;;;;;22.38;13.25;;;5.40;99.50;;;;;;4986270;28;20066;-70
2024/03/10 04:09:44;;;;;;;26.33;15.50;;;5.40;99.60;;;;;;4988126;28;20066;-70
2024/03/10 04:12:12;;;;;;;25.05;17.13;;;5.40;99.50;;;;;;4973348;28;20047;-70
2024/03/10 04:14:39;;;;;;;21.85;16.95;;;5.30;99.50;;;;;;4973272;28;20488;-70
2024/03/10 04:17:06;;;;;;;26.98;16.63;;;5.30;99.70;;;;;;4987911;28;20079;-70
2024/03/10 04:19:33;;;;;;;24.77;16.58;;;5.30;99.70;;;;;;5004204;28;20062;-70
2024/03/10 04:22:00;;;;;;;29.13;16.80;;;5.30;99.70;;;;;;4987943;28;20051;-70
2024/03/10 04:24:27;;;;;;;32.70;19.13;;;5.30;99.70;;;;;;4988113;28;20428;-70
2024/03/10 04:26:55;;;;;;;28.55;15.45;;;5.30;99.70;;;;;;4976368;28;20034;-70
2024/03/10 04:29:22;;;;;;;24.70;14.05;;;5.30;99.80;;;;;;4976893;28;20526;-70
2024/03/10 04:31:49;;;;;;;26.92;16.10;;;5.30;99.80;;;;;;5007743;28;20081;-70
2024/03/10 04:34:16;;;;;;;25.58;16.25;;;5.30;99.80;;;;;;4991964;28;20210;-70
2024/03/10 04:36:43;;;;;;;29.83;18.75;;;5.30;99.80;;;;;;4976883;28;20063;-70
2024/03/10 04:39:10;;;;;;;32.97;19.52;;;5.20;99.90;;;;;;4991274;28;20075;-70
2024/03/10 04:41:37;;;;;;;33.55;18.85;;;5.20;99.90;;;;;;4991323;28;20054;-70
2024/03/10 04:44:05;;;;;;;30.10;17.58;;;5.10;99.90;;;;;;4975240;28;20126;-70
2024/03/10 04:46:32;;;;;;;30.40;17.33;;;5.10;99.90;;;;;;4991199;28;20504;-70
2024/03/10 04:48:59;;;;;;;27.65;16.85;;;5.10;99.90;;;;;;4991317;28;20039;-70
2024/03/10 04:51:26;;;;;;;26.38;16.90;;;5.10;99.90;;;;;;5007386;28;20138;-70
2024/03/10 04:53:53;;;;;;;32.30;18.67;;;5.00;99.90;;;;;;5007261;28;20055;-70
2024/03/10 04:56:21;;;;;;;27.42;17.02;;;5.00;99.90;;;;;;4976340;28;20062;-70
2024/03/10 04:58:49;;;;;;;30.42;15.32;;;5.00;99.90;;;;;;5007114;28;20492;-70
2024/03/10 05:01:19;;;;;;;30.20;18.40;;;4.90;99.90;;;;;;4976170;28;20042;-70
2024/03/10 05:03:46;;;;;;;28.58;16.65;;;4.90;99.90;;;;;;5007471;28;20599;-70
2024/03/10 05:06:13;;;;;;;34.05;20.70;;;4.90;99.90;;;;;;4990719;28;20046;-70
2024/03/10 05:08:41;;;;;;;23.02;15.43;;;4.80;99.90;;;;;;4990982;28;20093;-70
2024/03/10 05:11:09;;;;;;;25.80;17.67;;;4.80;99.90;;;;;;4990447;28;20075;-70
2024/03/10 05:13:36;;;;;;;28.70;18.20;;;4.70;99.90;;;;;;4990766;28;20058;-69
2024/03/10 05:16:04;;;;;;;29.55;18.17;;;4.70;99.90;;;;;;4975946;28;20507;-70
2024/03/10 05:18:32;;;;;;;28.52;16.50;;;4.60;99.90;;;;;;4990567;28;20559;-69
2024/03/10 05:20:59;;;;;;;29.67;17.95;;;4.50;99.90;;;;;;4990495;28;20542;-70
2024/03/10 05:23:29;;;;;;;36.00;19.88;;;4.50;99.90;;;;;;4976075;28;20039;-70
2024/03/10 05:25:56;;;;;;;30.48;15.82;;;4.50;99.90;;;;;;4990413;28;20051;-70
2024/03/10 05:28:23;;;;;;;32.15;20.40;;;4.40;99.90;;;;;;5007082;28;20043;-70
2024/03/10 05:30:51;;;;;;;31.17;17.98;;;4.40;99.90;;;;;;4990558;28;20097;-70
2024/03/10 05:33:18;;;;;;;22.63;13.40;;;4.40;99.90;;;;;;4990340;28;20496;-70
2024/03/10 05:35:45;;;;;;;23.15;13.85;;;4.30;99.90;;;;;;4990426;28;20071;-70
2024/03/10 05:38:12;;;;;;;29.83;19.35;;;4.30;99.90;;;;;;4990377;28;20456;-70
2024/03/10 05:40:39;;;;;;;21.83;14.23;;;4.30;99.90;;;;;;4975531;28;20558;-70
2024/03/10 05:43:06;;;;;;;30.05;15.85;;;4.30;99.90;;;;;;4989758;28;20484;-70
2024/03/10 05:45:33;;;;;;;34.47;18.83;;;4.30;99.90;;;;;;5006665;28;20039;-70
2024/03/10 05:48:00;;;;;;;33.30;19.67;;;4.30;99.90;;;;;;4975190;28;20050;-70
2024/03/10 05:50:29;;;;;;;27.70;15.90;;;4.30;99.90;;;;;;4990241;28;20488;-70
2024/03/10 05:52:56;;;;;;;28.48;16.08;;;4.30;99.90;;;;;;4975325;28;20047;-70
2024/03/10 05:55:23;;;;;;;32.42;18.65;;;4.30;99.90;;;;;;5006437;28;20042;-70
2024/03/10 05:57:50;;;;;;;34.63;21.40;;;4.30;99.90;;;;;;4975401;28;20046;-70
2024/03/10 06:00:17;;;;;;;37.45;21.00;;;4.40;99.90;;;;;;4973673;28;20511;-70
2024/03/10 06:02:44;;;;;;;32.45;19.40;;;4.40;99.90;;;;;;4974691;28;20043;-70
2024/03/10 06:05:15;;;;;;;30.73;18.15;;;4.40;99.90;;;;;;4973424;28;20149;-70
2024/03/10 06:07:43;;;;;;;29.27;18.00;;;4.40;99.90;;;;;;4989731;28;20141;-70
2024/03/10 06:10:11;;;;;;;27.70;16.45;;;4.40;99.90;;;;;;4974635;28;20047;-70
2024/03/10 06:12:39;;;;;;;26.92;17.90;;;4.40;99.90;;;;;;4974810;28;20078;-70
2024/03/10 06:15:10;;;;;;;36.20;22.10;;;4.40;99.90;;;;;;4989502;28;20563;-69
2024/03/10 06:17:40;;;;;;;29.50;16.60;;;4.40;99.90;;;;;;4974815;28;20066;-69
2024/03/10 06:25:39;;;;;;;18.40;10.70;;;4.40;99.90;;;;;;4973609;28;20054;-70
2024/03/10 06:28:06;;;;;;;40.45;22.25;;;4.50;99.90;;;;;;4989227;28;20038;-70
2024/03/10 06:30:35;;;;;;;29.27;18.48;;;4.50;99.90;;;;;;4989416;28;20515;-70
2024/03/10 06:33:02;;;;;;;29.80;21.60;;;4.50;99.90;;;;;;4989372;28;20412;-70
2024/03/10 06:35:30;;;;;;;34.47;20.08;;;4.50;99.90;;;;;;4973228;28;20042;-70
2024/03/10 06:37:57;;;;;;;26.75;15.32;;;4.50;99.90;;;;;;4989084;28;20085;-69
2024/03/10 06:40:25;;;;;;;28.58;17.02;;;4.50;99.90;;;;;;4973993;28;20171;-70
2024/03/10 06:42:52;;;;;;;28.23;17.98;;;4.50;99.90;;;;;;4973027;28;20507;-70
2024/03/10 06:45:19;;;;;;;36.15;19.63;;;4.60;99.90;;;;;;4973968;28;20492;-69
2024/03/10 06:47:46;;;;;;;38.20;23.02;;;4.60;99.90;;;;;;4988319;28;20043;-70
2024/03/10 06:50:13;;;;;;;32.13;19.90;;;4.60;99.90;;;;;;4988751;28;20043;-70
2024/03/10 06:52:43;;;;;;;32.90;19.27;;;4.60;99.90;;;;;;4974512;28;20097;-70
2024/03/10 06:55:11;;;;;;;34.25;20.83;;;4.60;99.90;;;;;;4988620;28;20492;-70
2024/03/10 06:57:38;;;;;;;38.20;22.70;;;4.70;99.90;;;;;;4988690;28;20051;-70
2024/03/10 07:00:12;;;;;;;39.50;22.98;;;4.70;99.90;;;;;;4988636;28;20047;-70
2024/03/10 07:02:45;;;;;;;38.38;20.95;;;4.70;99.90;;;;;;4988939;28;20141;-70
2024/03/10 07:05:12;;;;;;;35.50;21.75;;;4.80;99.90;;;;;;4973800;28;20086;-70
2024/03/10 07:07:39;;;;;;;33.40;18.88;;;4.80;99.90;;;;;;4956783;28;20043;-70
2024/03/10 07:10:09;;;;;;;35.97;18.27;;;4.80;99.90;;;;;;5005085;28;20046;-69
2024/03/10 07:12:36;;;;;;;42.03;23.40;;;4.90;99.90;;;;;;4973908;28;20066;-70
2024/03/10 07:15:05;;;;;;;39.85;23.10;;;4.90;99.90;;;;;;4973805;28;20047;-70
2024/03/10 07:17:32;;;;;;;40.17;23.52;;;5.00;99.90;;;;;;4988634;28;20042;-70
2024/03/10 07:20:02;;;;;;;40.40;21.15;;;5.00;99.90;;;;;;4988412;28;20051;-69
2024/03/10 07:22:29;;;;;;;41.45;23.85;;;5.10;99.90;;;;;;4973638;28;20039;-70
2024/03/10 07:24:56;;;;;;;32.70;19.75;;;5.10;99.90;;;;;;4972571;28;20039;-70
2024/03/10 07:27:24;;;;;;;37.78;20.67;;;5.10;99.90;;;;;;4972416;28;20050;-70
2024/03/10 07:29:53;;;;;;;41.50;23.38;;;5.20;99.90;;;;;;4973519;28;20035;-70
2024/03/10 07:32:20;;;;;;;37.42;19.63;;;5.20;99.90;;;;;;4971957;28;20054;-69
2024/03/10 07:34:48;;;;;;;38.30;21.05;;;5.30;99.90;;;;;;4972115;28;20113;-70
2024/03/10 07:37:16;;;;;;;96.05;76.13;;;5.30;99.90;;;;;;4988357;28;20403;-69
2024/03/10 07:39:43;;;;;;;51.92;38.47;;;5.40;99.90;;;;;;4972218;28;20038;-70
2024/03/10 07:42:10;;;;;;;43.30;25.42;;;5.40;99.90;;;;;;4971157;28;20560;-70
2024/03/10 07:44:37;;;;;;;41.58;25.27;;;5.40;99.90;;;;;;4973607;28;20038;-70
2024/03/10 07:47:04;;;;;;;32.25;19.15;;;5.50;99.90;;;;;;4973536;28;20134;-69
2024/03/10 07:49:31;;;;;;;43.63;26.67;;;5.60;99.90;;;;;;4973192;28;20039;-70
2024/03/10 07:51:58;;;;;;;39.28;25.80;;;5.60;99.90;;;;;;4988440;28;20408;-70
2024/03/10 07:54:26;;;;;;;42.28;23.05;;;5.70;99.90;;;;;;4971973;28;20122;-70
2024/03/10 07:56:53;;;;;;;37.00;21.85;;;5.70;99.90;;;;;;4988214;28;20098;-70
2024/03/10 07:59:21;;;;;;;38.35;23.92;;;5.80;99.90;;;;;;4972807;28;20046;-70
2024/03/10 08:01:49;;;;;;;30.30;21.50;;;5.90;99.90;;;;;;4992019;28;20066;-70
2024/03/10 08:04:17;;;;;;;33.95;28.30;;;6.00;99.90;;;;;;4976978;28;20393;-70
2024/03/10 08:06:45;;;;;;;37.10;30.65;;;6.10;99.90;;;;;;4991926;28;20463;-70
2024/03/10 08:09:17;;;;;;;34.45;22.40;;;6.20;99.90;;;;;;4975736;28;20049;-70
2024/03/10 08:11:47;;;;;;;32.45;20.95;;;6.30;99.90;;;;;;4977142;28;20045;-70
2024/03/10 08:14:15;;;;;;;28.80;17.50;;;6.40;99.90;;;;;;4975875;28;20125;-70
2024/03/10 08:16:42;;;;;;;39.38;23.35;;;6.40;99.90;;;;;;4992116;28;20070;-70
2024/03/10 08:19:09;;;;;;;31.02;17.50;;;6.40;99.90;;;;;;4991930;28;20047;-69
2024/03/10 08:21:38;;;;;;;37.88;24.25;;;6.50;99.90;;;;;;4991356;28;20524;-70
2024/03/10 08:24:09;;;;;;;36.55;23.10;;;6.50;99.90;;;;;;4976861;28;20046;-70
2024/03/10 08:26:38;;;;;;;26.77;15.93;;;6.60;99.90;;;;;;4991516;28;20488;-70
2024/03/10 08:29:05;;;;;;;36.10;21.33;;;6.70;99.90;;;;;;4991823;28;20047;-70
2024/03/10 08:31:32;;;;;;;33.85;20.70;;;6.80;99.90;;;;;;4975225;28;20076;-70
2024/03/10 08:33:59;;;;;;;33.28;18.98;;;6.80;99.90;;;;;;4991620;28;20492;-71
2024/03/10 08:36:27;;;;;;;35.20;20.48;;;6.90;99.90;;;;;;4976464;28;20042;-70
2024/03/10 08:38:54;;;;;;;29.23;17.42;;;7.00;99.90;;;;;;4975310;28;20098;-70
2024/03/10 08:41:21;;;;;;;40.17;23.33;;;7.20;99.90;;;;;;4976287;28;20050;-70
2024/03/10 08:43:49;;;;;;;35.08;22.67;;;7.20;99.90;;;;;;4975096;28;20047;-70
2024/03/10 08:46:16;;;;;;;35.72;25.30;;;7.30;99.90;;;;;;4991528;28;20463;-70
2024/03/10 08:48:44;;;;;;;31.45;21.73;;;7.30;99.90;;;;;;5007863;28;20050;-70
2024/03/10 08:51:12;;;;;;;33.70;20.65;;;7.40;99.90;;;;;;4976330;28;20043;-70
2024/03/10 08:53:40;;;;;;;35.78;19.95;;;7.50;99.90;;;;;;4991061;28;20555;-70
2024/03/10 08:56:07;;;;;;;33.45;20.58;;;7.60;99.90;;;;;;4991085;28;20049;-71
2024/03/10 08:58:35;;;;;;;38.42;23.23;;;7.70;99.90;;;;;;4976009;28;20129;-70
2024/03/10 09:01:04;;;;;;;31.88;20.88;;;7.80;99.90;;;;;;4990951;28;20042;-70
2024/03/10 09:03:32;;;;;;;32.33;20.35;;;8.00;99.70;;;;;;4975031;28;20085;-70
2024/03/10 09:06:00;;;;;;;31.77;20.52;;;8.10;99.60;;;;;;4976223;28;20065;-70
2024/03/10 09:08:28;;;;;;;28.63;19.17;;;8.20;99.30;;;;;;4990751;28;20057;-70
2024/03/10 09:10:56;;;;;;;34.72;21.23;;;8.30;99.00;;;;;;4975471;28;20046;-70
2024/03/10 09:13:28;;;;;;;31.65;21.58;;;8.50;99.00;;;;;;4990686;28;20484;-69
2024/03/10 09:15:56;;;;;;;25.10;17.33;;;8.70;98.80;;;;;;4990739;28;20050;-70
2024/03/10 09:18:23;;;;;;;35.45;21.10;;;8.90;98.30;;;;;;4990609;28;20046;-70
2024/03/10 09:20:50;;;;;;;37.30;22.40;;;9.20;98.60;;;;;;4975729;28;20039;-70
2024/03/10 09:23:17;;;;;;;37.22;23.95;;;9.60;98.10;;;;;;4974626;28;20043;-70
2024/03/10 09:25:45;;;;;;;33.67;20.85;;;10.10;97.50;;;;;;4974215;28;20141;-70
2024/03/10 09:28:12;;;;;;;34.08;22.35;;;10.40;96.00;;;;;;4990436;28;20146;-70
2024/03/10 09:30:39;;;;;;;35.83;24.42;;;10.60;95.60;;;;;;4975404;28;20034;-70
2024/03/10 09:33:09;;;;;;;39.75;25.40;;;10.80;95.80;;;;;;4990418;28;20043;-70
2024/03/10 09:35:36;;;;;;;32.05;21.60;;;11.20;95.20;;;;;;4974702;28;20046;-70
2024/03/10 09:38:06;;;;;;;27.45;19.80;;;11.70;94.70;;;;;;4990512;28;20071;-70
2024/03/10 09:40:34;;;;;;;34.97;23.10;;;11.90;93.60;;;;;;4975236;28;20129;-70
2024/03/10 09:43:05;;;;;;;29.92;19.55;;;12.00;93.20;;;;;;4975426;28;20125;-70
2024/03/10 09:45:41;;;;;;;31.23;20.30;;;11.90;92.50;;;;;;5006393;28;20473;-70
2024/03/10 09:48:09;;;;;;;34.40;20.15;;;11.70;92.40;;;;;;4975375;28;20523;-70
2024/03/10 09:50:41;;;;;;;31.25;20.80;;;11.50;93.10;;;;;;5006042;28;20497;-70
2024/03/10 09:53:09;;;;;;;33.13;22.10;;;11.50;93.10;;;;;;4974095;28;20042;-70
2024/03/10 09:55:36;;;;;;;32.55;24.73;;;11.50;93.00;;;;;;4973857;28;20085;-71
2024/03/10 09:58:12;;;;;;;35.00;21.88;;;11.70;92.90;;;;;;4975031;28;20101;-70
2024/03/10 10:00:46;;;;;;;31.80;20.10;;;12.10;92.50;;;;;;4988710;28;20039;-70
2024/03/10 10:03:15;;;;;;;33.38;20.42;;;12.60;92.40;;;;;;4974616;28;20039;-70
2024/03/10 10:05:52;;;;;;;35.38;22.52;;;13.00;91.90;;;;;;4988978;28;20046;-70
2024/03/10 10:08:22;;;;;;;32.13;19.30;;;13.50;91.50;;;;;;4973749;28;20110;-70
2024/03/10 10:10:50;;;;;;;30.33;22.05;;;13.90;90.60;;;;;;4974679;28;20035;-70
2024/03/10 10:13:24;;;;;;;27.70;21.17;;;14.10;90.00;;;;;;4989829;28;20066;-70
2024/03/10 10:15:54;;;;;;;28.38;19.13;;;14.40;89.70;;;;;;4989495;28;20038;-71
2024/03/10 10:18:23;;;;;;;32.60;21.77;;;14.70;89.00;;;;;;4989654;28;20047;-70
2024/03/10 10:20:56;;;;;;;35.05;22.98;;;14.80;87.90;;;;;;4974561;28;20043;-71
2024/03/10 10:23:24;;;;;;;30.52;19.80;;;14.70;87.20;;;;;;4973263;28;20481;-70
2024/03/10 10:26:10;;;;;;;32.20;20.38;;;14.60;86.80;;;;;;4989632;28;20046;-71
2024/03/10 10:28:37;;;;;;;34.05;23.13;;;14.50;86.80;;;;;;4989364;28;20046;-70
2024/03/10 10:31:15;;;;;;;36.22;25.65;;;14.40;86.40;;;;;;4989559;28;20401;-70
2024/03/10 10:33:45;;;;;;;33.42;24.00;;;14.40;86.50;;;;;;4974415;28;20483;-70
2024/03/10 10:36:14;;;;;;;30.27;20.23;;;14.40;86.00;;;;;;4973267;28;20049;-71
2024/03/10 10:38:48;;;;;;;33.42;23.58;;;14.40;85.90;;;;;;4974224;28;20126;-70
2024/03/10 10:41:15;;;;;;;30.23;21.67;;;14.40;85.90;;;;;;4974316;28;20066;-70
2024/03/10 10:43:45;;;;;;;34.25;20.95;;;14.20;86.10;;;;;;4986976;28;20055;-71
2024/03/10 10:46:13;;;;;;;28.77;20.90;;;14.00;86.10;;;;;;4973522;28;20057;-70
2024/03/10 10:48:41;;;;;;;30.83;20.25;;;13.90;86.00;;;;;;4974114;28;20039;-71
2024/03/10 10:51:08;;;;;;;28.95;21.13;;;14.00;86.60;;;;;;4989069;28;20042;-71
2024/03/10 10:53:39;;;;;;;28.95;19.80;;;14.30;85.50;;;;;;4989171;28;20042;-70
2024/03/10 10:56:11;;;;;;;29.83;19.48;;;14.60;85.20;;;;;;4989001;28;20047;-71
2024/03/10 10:58:38;;;;;;;29.35;19.20;;;14.90;84.60;;;;;;4988974;28;20296;-70
2024/03/10 11:01:05;;;;;;;32.17;22.35;;;15.10;83.40;;;;;;4974130;28;20393;-70
2024/03/10 11:03:39;;;;;;;28.48;20.95;;;15.10;83.80;;;;;;4988883;28;20043;-70
2024/03/10 11:06:08;;;;;;;26.70;22.27;;;15.10;83.70;;;;;;4988976;28;20428;-70
2024/03/10 11:08:39;;;;;;;31.08;21.65;;;14.90;83.20;;;;;;4974080;28;20122;-70
2024/03/10 11:11:07;;;;;;;28.25;21.90;;;14.60;83.70;;;;;;4989257;28;20051;-70
2024/03/10 11:13:38;;;;;;;28.08;18.55;;;14.30;84.20;;;;;;5005120;28;20050;-70
2024/03/10 11:16:09;;;;;;;24.15;17.08;;;14.30;84.40;;;;;;4988607;28;20052;-70
2024/03/10 11:18:39;;;;;;;27.17;19.08;;;14.30;84.00;;;;;;4973796;28;20039;-71
2024/03/10 11:21:17;;;;;;;27.63;21.55;;;14.50;83.80;;;;;;4988917;28;20049;-71
2024/03/10 11:23:49;;;;;;;26.65;18.48;;;14.70;83.50;;;;;;4988458;28;20039;-70
2024/03/10 11:26:17;;;;;;;29.20;20.38;;;15.00;82.60;;;;;;4988642;28;20493;-70
2024/03/10 11:28:54;;;;;;;25.50;18.52;;;15.10;82.10;;;;;;4973546;28;20093;-70
2024/03/10 11:31:27;;;;;;;27.35;20.73;;;15.30;82.10;;;;;;4988753;28;20076;-70
2024/03/10 11:33:58;;;;;;;29.15;20.42;;;15.30;80.40;;;;;;4988010;28;20054;-71
2024/03/10 11:36:34;;;;;;;30.77;21.77;;;15.20;80.90;;;;;;4972722;28;20441;-70
2024/03/10 11:39:02;;;;;;;31.05;21.35;;;15.40;81.10;;;;;;4973532;28;20054;-70
2024/03/10 11:41:29;;;;;;;21.98;16.17;;;15.50;80.90;;;;;;4973549;28;20098;-71
2024/03/10 11:43:57;;;;;;;25.80;18.70;;;15.50;80.90;;;;;;4973250;28;20055;-70
2024/03/10 11:46:33;;;;;;;28.58;22.55;;;15.20;80.80;;;;;;4973609;28;20035;-70
2024/03/10 11:49:01;;;;;;;25.13;20.65;;;14.90;81.00;;;;;;4988350;28;20393;-71
2024/03/10 11:51:31;;;;;;;29.10;21.00;;;14.60;81.80;;;;;;4973602;28;20047;-71
2024/03/10 11:54:00;;;;;;;28.73;21.70;;;14.60;82.20;;;;;;4973226;28;20400;-70
2024/03/10 11:56:29;;;;;;;26.33;18.38;;;14.70;82.00;;;;;;4988398;28;20058;-70
2024/03/10 11:58:57;;;;;;;27.35;21.20;;;15.00;81.40;;;;;;4987924;28;20567;-70
2024/03/10 12:01:26;;;;;;;26.95;18.33;;;15.30;81.70;;;;;;4973375;28;20049;-70
2024/03/10 12:03:55;;;;;;;26.90;17.27;;;15.60;80.50;;;;;;4988331;28;20039;-70
2024/03/10 12:06:25;;;;;;;25.40;17.67;;;15.80;80.20;;;;;;4988284;28;20046;-70
2024/03/10 12:08:54;;;;;;;24.77;18.02;;;15.80;80.20;;;;;;4973391;28;20586;-70
2024/03/10 12:11:24;;;;;;;26.55;20.10;;;15.80;79.70;;;;;;4988273;28;20046;-70
2024/03/10 12:13:53;;;;;;;25.45;18.17;;;15.70;79.80;;;;;;4988055;28;20146;-71
2024/03/10 12:16:21;;;;;;;21.05;15.60;;;15.50;80.30;;;;;;4988443;28;20043;-70
2024/03/10 12:18:49;;;;;;;25.48;18.77;;;15.40;80.60;;;;;;5004385;28;20069;-70
2024/03/10 12:21:18;;;;;;;27.67;18.13;;;15.20;80.40;;;;;;4971960;28;20492;-70
2024/03/10 12:23:46;;;;;;;27.63;19.17;;;15.00;81.10;;;;;;4988162;28;20481;-70
2024/03/10 12:26:15;;;;;;;29.27;18.95;;;14.90;81.40;;;;;;4972338;28;20046;-70
2024/03/10 12:28:43;;;;;;;24.77;17.00;;;14.90;81.70;;;;;;4988240;28;20496;-70
2024/03/10 12:31:16;;;;;;;26.50;18.55;;;14.90;81.80;;;;;;4988091;28;20045;-70
2024/03/10 12:33:46;;;;;;;40.75;17.13;;;14.80;81.60;;;;;;4973068;28;20039;-70
2024/03/10 12:36:13;;;;;;;26.23;17.70;;;14.70;81.80;;;;;;4973034;28;20042;-70
2024/03/10 12:38:41;;;;;;;26.15;18.40;;;14.60;82.20;;;;;;4987729;28;20543;-70
2024/03/10 12:41:09;;;;;;;29.67;20.08;;;14.50;82.40;;;;;;4972807;28;20047;-70
2024/03/10 12:43:36;;;;;;;23.42;18.27;;;14.60;82.40;;;;;;4972797;28;20130;-70
2024/03/10 12:46:09;;;;;;;24.92;17.85;;;14.90;82.00;;;;;;4988035;28;20050;-70
2024/03/10 12:48:36;;;;;;;19.65;15.25;;;15.20;81.40;;;;;;4991465;28;20109;-70
2024/03/10 12:51:06;;;;;;;21.90;16.75;;;15.20;81.20;;;;;;4991174;28;20042;-70
2024/03/10 12:53:33;;;;;;;21.08;16.10;;;15.40;81.10;;;;;;4991154;28;20046;-70
2024/03/10 12:56:00;;;;;;;26.20;18.20;;;15.60;80.70;;;;;;4976046;28;20054;-71
2024/03/10 12:58:27;;;;;;;24.15;17.13;;;15.80;80.30;;;;;;4976690;28;20039;-70
2024/03/10 13:00:54;;;;;;;21.92;17.15;;;16.00;80.00;;;;;;4991044;28;20050;-70